Time;durP1;ratioP1;P1;durP2;ratioP2;P2;SDS_P1;SDS_P2;PMS_P1;PMS_P2;Temp;Humidity;BMP_temperature;BMP_pressure;BME280_temperature;BME280_humidity;BME280_pressure;Samples;Min_cycle;Max_cycle;Signal;HPM_P1;HPM_P2
2021/10/06 00:01:18;;;;;;;1.92;1.17;;;17.00;70.80;;;;;;20720664;28;20100;-79
2021/10/06 00:11:18;;;;;;;1.65;1.08;;;17.00;70.80;;;;;;20705435;28;20061;-79
2021/10/06 00:21:19;;;;;;;1.25;0.95;;;17.00;70.90;;;;;;20719826;28;20038;-80
2021/10/06 00:31:19;;;;;;;2.97;1.10;;;17.00;70.80;;;;;;20735527;28;20048;-80
2021/10/06 00:41:20;;;;;;;1.20;0.80;;;17.00;70.90;;;;;;20719064;28;20038;-80
2021/10/06 00:51:21;;;;;;;2.35;0.93;;;17.00;70.90;;;;;;20701253;28;20079;-81
2021/10/06 01:01:21;;;;;;;1.65;0.70;;;17.00;70.90;;;;;;20713667;28;20050;-79
2021/10/06 01:11:22;;;;;;;2.40;0.95;;;17.00;71.00;;;;;;20715643;28;20180;-79
2021/10/06 01:21:22;;;;;;;1.67;0.95;;;17.00;71.00;;;;;;20715461;28;20044;-79
2021/10/06 01:31:26;;;;;;;1.10;1.00;;;17.00;70.90;;;;;;20714240;28;20034;-80
2021/10/06 01:41:30;;;;;;;1.38;1.00;;;17.10;71.00;;;;;;20730549;28;20037;-80
2021/10/06 01:51:31;;;;;;;1.30;0.70;;;17.00;70.90;;;;;;20713103;28;20091;-79
2021/10/06 02:01:31;;;;;;;1.27;0.80;;;17.00;70.90;;;;;;20711678;28;20038;-80
2021/10/06 02:11:32;;;;;;;1.25;0.80;;;17.00;70.90;;;;;;20694905;28;20065;-80
2021/10/06 02:21:33;;;;;;;1.40;0.68;;;16.90;70.80;;;;;;20726469;28;20042;-80
2021/10/06 02:31:34;;;;;;;1.25;1.00;;;17.00;70.80;;;;;;20726396;28;20037;-80
2021/10/06 02:41:35;;;;;;;1.17;0.60;;;16.90;70.70;;;;;;20725914;28;20146;-80
2021/10/06 02:51:35;;;;;;;1.13;0.65;;;16.90;70.70;;;;;;20725136;28;20080;-80
2021/10/06 03:01:36;;;;;;;0.70;0.50;;;16.90;70.70;;;;;;20708941;28;20066;-80
2021/10/06 03:11:36;;;;;;;0.30;0.30;;;16.90;70.70;;;;;;20705533;28;20366;-79
2021/10/06 03:21:37;;;;;;;1.85;0.80;;;16.90;70.70;;;;;;20717010;28;20399;-79
2021/10/06 03:31:38;;;;;;;1.13;0.57;;;16.90;70.70;;;;;;20739912;28;20072;-80
2021/10/06 03:41:38;;;;;;;0.32;0.32;;;16.90;70.60;;;;;;20722559;28;20042;-79
2021/10/06 03:51:39;;;;;;;0.40;0.40;;;16.90;70.60;;;;;;20738106;28;20053;-75
2021/10/06 04:01:39;;;;;;;1.00;0.60;;;16.90;70.60;;;;;;20704782;28;20049;-77
2021/10/06 04:11:40;;;;;;;1.08;0.70;;;16.90;70.60;;;;;;20752708;28;20032;-75
2021/10/06 04:21:41;;;;;;;0.68;0.45;;;16.90;70.50;;;;;;20717161;28;20088;-75
2021/10/06 04:31:41;;;;;;;1.38;0.47;;;16.90;70.50;;;;;;20732512;28;20068;-75
2021/10/06 04:41:42;;;;;;;0.68;0.50;;;16.90;71.10;;;;;;20703775;28;20040;-76
2021/10/06 04:51:42;;;;;;;1.13;0.60;;;16.90;70.40;;;;;;20737356;28;20034;-80
2021/10/06 05:01:43;;;;;;;1.80;0.70;;;16.90;70.40;;;;;;20734203;28;20061;-77
2021/10/06 05:11:44;;;;;;;2.28;0.70;;;16.80;70.30;;;;;;20708392;28;20030;-77
2021/10/06 05:21:45;;;;;;;1.42;0.43;;;16.90;70.40;;;;;;20735740;28;20107;-80
2021/10/06 05:31:45;;;;;;;0.77;0.47;;;16.80;70.20;;;;;;20702051;28;20113;-77
2021/10/06 05:41:46;;;;;;;1.25;0.80;;;16.90;70.30;;;;;;20713220;28;20042;-78
2021/10/06 05:51:46;;;;;;;1.00;0.60;;;16.80;70.20;;;;;;20647034;28;20030;-77
2021/10/06 06:01:47;;;;;;;0.80;0.50;;;16.80;70.20;;;;;;20748522;28;20040;-77
2021/10/06 06:11:48;;;;;;;1.60;0.50;;;17.00;69.80;;;;;;20704327;28;20041;-77
2021/10/06 06:21:49;;;;;;;0.52;0.43;;;17.40;68.80;;;;;;20650217;28;20602;-75
2021/10/06 06:31:49;;;;;;;1.17;0.60;;;18.00;67.40;;;;;;20663619;28;20062;-75
2021/10/06 06:41:51;;;;;;;1.48;0.52;;;18.30;65.90;;;;;;20663278;28;20038;-81
2021/10/06 06:51:52;;;;;;;1.83;0.47;;;18.60;65.10;;;;;;20643503;28;20040;-77
2021/10/06 07:01:53;;;;;;;0.63;0.22;;;18.60;64.80;;;;;;20650162;28;20460;-76
2021/10/06 07:11:54;;;;;;;0.88;0.40;;;18.30;65.00;;;;;;20675820;28;20041;-77
2021/10/06 07:21:54;;;;;;;0.80;0.40;;;18.00;65.60;;;;;;20722708;28;20083;-77
2021/10/06 07:31:55;;;;;;;0.95;0.40;;;17.80;66.40;;;;;;20625293;28;20385;-78
2021/10/06 07:41:55;;;;;;;0.63;0.57;;;17.60;67.20;;;;;;20625920;28;20620;-78
2021/10/06 07:51:56;;;;;;;0.55;0.20;;;17.40;67.70;;;;;;20622103;28;20485;-79
2021/10/06 08:01:56;;;;;;;0.50;0.30;;;17.30;68.10;;;;;;20658621;28;20084;-79
2021/10/06 08:11:57;;;;;;;1.38;0.50;;;17.20;68.40;;;;;;20719454;28;20045;-78
2021/10/06 08:21:57;;;;;;;1.27;0.60;;;17.20;68.70;;;;;;20701580;28;20042;-78
2021/10/06 08:31:58;;;;;;;0.82;0.35;;;17.10;68.90;;;;;;20714794;28;20050;-78
2021/10/06 08:42:00;;;;;;;0.98;0.30;;;17.10;69.00;;;;;;20635775;28;20104;-79
2021/10/06 08:52:01;;;;;;;0.52;0.30;;;17.10;69.20;;;;;;20692225;28;20021;-79
2021/10/06 09:02:12;;;;;;;1.35;0.50;;;17.10;69.30;;;;;;20675145;28;20121;-78
2021/10/06 09:12:14;;;;;;;0.98;0.43;;;17.10;69.20;;;;;;20660447;28;20528;-78
2021/10/06 09:22:23;;;;;;;2.30;0.30;;;17.20;69.30;;;;;;20679123;28;20111;-79
2021/10/06 09:32:36;;;;;;;1.00;0.40;;;17.20;69.90;;;;;;20715932;28;20100;-78
2021/10/06 09:42:50;;;;;;;0.88;0.30;;;17.20;69.30;;;;;;20665286;28;20070;-78
2021/10/06 09:52:52;;;;;;;0.60;0.40;;;17.20;69.30;;;;;;20711629;28;20033;-79
2021/10/06 10:02:52;;;;;;;0.80;0.70;;;17.20;69.30;;;;;;20694521;28;20041;-79
2021/10/06 10:12:53;;;;;;;1.02;0.40;;;17.20;69.30;;;;;;20669708;28;20022;-78
2021/10/06 10:22:58;;;;;;;0.98;0.52;;;17.20;69.90;;;;;;20655056;28;20396;-79
2021/10/06 10:32:59;;;;;;;0.32;0.30;;;17.20;69.20;;;;;;22026918;22;20054;-78
2021/10/06 10:43:09;;;;;;;0.20;0.20;;;17.20;69.20;;;;;;20730451;28;20687;-76
2021/10/06 10:53:14;;;;;;;2.45;0.60;;;17.20;69.30;;;;;;20714930;28;20037;-78
2021/10/06 11:03:14;;;;;;;0.90;0.30;;;17.20;69.20;;;;;;20712855;28;20041;-77
2021/10/06 11:13:32;;;;;;;0.93;0.30;;;17.30;69.20;;;;;;20710602;28;20041;-80
2021/10/06 11:23:35;;;;;;;2.95;0.50;;;17.30;69.00;;;;;;20728468;28;20038;-75
2021/10/06 11:33:36;;;;;;;1.83;0.60;;;17.20;69.10;;;;;;20739931;28;20042;-73
2021/10/06 11:43:50;;;;;;;0.50;0.30;;;17.20;69.20;;;;;;20716581;28;20108;-74
2021/10/06 11:53:51;;;;;;;0.50;0.28;;;17.20;69.20;;;;;;20712004;28;20710;-75
2021/10/06 12:03:52;;;;;;;0.67;0.30;;;17.20;69.20;;;;;;20717775;28;20124;-74
2021/10/06 12:13:53;;;;;;;0.80;0.40;;;17.20;69.00;;;;;;20719248;28;20277;-75
2021/10/06 12:23:59;;;;;;;1.75;0.50;;;17.20;69.10;;;;;;20734812;28;20058;-75
2021/10/06 12:34:07;;;;;;;1.05;0.30;;;17.20;69.10;;;;;;20717402;28;20037;-71
2021/10/06 12:44:16;;;;;;;2.00;0.28;;;17.20;69.00;;;;;;20715822;28;20041;-69
2021/10/06 12:54:21;;;;;;;0.35;0.20;;;17.30;69.10;;;;;;20695080;28;20038;-73
2021/10/06 13:04:22;;;;;;;1.20;0.40;;;17.20;69.10;;;;;;20697159;28;20038;-77
2021/10/06 13:14:23;;;;;;;1.17;0.40;;;17.20;69.10;;;;;;20715471;28;20384;-76
2021/10/06 13:24:24;;;;;;;0.52;0.25;;;17.20;69.20;;;;;;20714294;28;20049;-75
2021/10/06 13:34:26;;;;;;;1.63;0.30;;;17.20;69.20;;;;;;20695916;28;20046;-73
2021/10/06 13:44:27;;;;;;;0.65;0.28;;;17.20;69.20;;;;;;20711323;28;20064;-70
2021/10/06 13:54:29;;;;;;;0.57;0.40;;;17.30;69.30;;;;;;20700320;28;20034;-71
2021/10/06 14:04:30;;;;;;;1.55;0.30;;;17.20;69.00;;;;;;20707735;28;20411;-71
2021/10/06 14:14:30;;;;;;;1.38;0.40;;;17.10;68.80;;;;;;20693206;28;20472;-71
2021/10/06 14:24:31;;;;;;;2.25;0.63;;;17.20;68.70;;;;;;20693264;28;20061;-72
2021/10/06 14:34:32;;;;;;;0.30;0.20;;;17.20;68.70;;;;;;20708924;28;20046;-72
2021/10/06 14:44:33;;;;;;;1.25;0.40;;;17.20;68.70;;;;;;20724730;28;20322;-73
2021/10/06 14:54:34;;;;;;;1.42;0.63;;;17.20;68.70;;;;;;20708680;28;20038;-74
2021/10/06 15:04:34;;;;;;;1.70;0.77;;;17.20;68.70;;;;;;20691485;28;20038;-74
2021/10/06 15:14:35;;;;;;;0.30;0.30;;;17.20;68.60;;;;;;20695921;28;20636;-74
2021/10/06 15:24:36;;;;;;;0.73;0.20;;;17.20;68.40;;;;;;20723387;28;20065;-74
2021/10/06 15:34:37;;;;;;;1.02;0.20;;;17.30;68.40;;;;;;20722427;28;20045;-73
2021/10/06 15:44:37;;;;;;;0.52;0.30;;;17.30;68.40;;;;;;20737974;28;20543;-74
2021/10/06 15:54:38;;;;;;;0.30;0.10;;;17.40;68.40;;;;;;20705445;28;20458;-76
2021/10/06 16:04:39;;;;;;;1.38;0.22;;;17.30;68.40;;;;;;20716421;28;20038;-72
2021/10/06 16:14:40;;;;;;;1.85;0.40;;;17.30;68.30;;;;;;20714398;28;20113;-73
2021/10/06 16:24:41;;;;;;;0.28;0.20;;;17.30;69.10;;;;;;20704460;28;20403;-76
2021/10/06 16:34:49;;;;;;;2.33;0.40;;;17.20;68.60;;;;;;20717845;28;20113;-73
2021/10/06 16:44:50;;;;;;;0.30;0.22;;;17.20;68.60;;;;;;20735254;28;20415;-73
2021/10/06 16:54:50;;;;;;;0.82;0.40;;;17.20;68.50;;;;;;20715793;28;20117;-75
2021/10/06 17:04:51;;;;;;;3.25;0.70;;;17.30;68.30;;;;;;20747787;28;20042;-73
2021/10/06 17:14:52;;;;;;;4.80;1.73;;;17.50;67.70;;;;;;20749550;28;20080;-75
2021/10/06 17:24:52;;;;;;;1.88;0.82;;;17.80;67.00;;;;;;20750729;28;20041;-75
2021/10/06 17:34:53;;;;;;;1.67;0.73;;;18.00;66.20;;;;;;20731095;28;20116;-74
2021/10/06 17:44:53;;;;;;;1.30;0.63;;;18.20;65.60;;;;;;20747343;28;20296;-75
2021/10/06 17:54:54;;;;;;;1.55;0.50;;;18.10;65.50;;;;;;20731343;28;20037;-75
2021/10/06 18:04:55;;;;;;;1.33;0.68;;;17.90;65.80;;;;;;20714749;28;20124;-74
2021/10/06 18:14:55;;;;;;;1.55;0.60;;;17.70;66.20;;;;;;20718326;28;20869;-79
2021/10/06 18:24:56;;;;;;;0.77;0.47;;;17.60;66.60;;;;;;20747745;28;20045;-77
2021/10/06 18:34:56;;;;;;;5.85;1.63;;;17.40;66.90;;;;;;20729854;28;20379;-76
2021/10/06 18:44:57;;;;;;;1.30;0.52;;;17.30;67.30;;;;;;20712627;28;20038;-75
2021/10/06 18:54:58;;;;;;;0.90;0.40;;;17.20;67.60;;;;;;20744489;28;20033;-76
2021/10/06 19:04:59;;;;;;;1.23;0.40;;;17.20;67.90;;;;;;20655780;28;20038;-76
2021/10/06 19:15:00;;;;;;;1.30;0.30;;;17.10;68.00;;;;;;20646306;28;20352;-75
2021/10/06 19:25:01;;;;;;;2.30;0.50;;;17.10;68.10;;;;;;20659560;28;20095;-75
2021/10/06 19:35:04;;;;;;;3.55;0.40;;;17.00;68.20;;;;;;20780521;28;20041;-76
2021/10/06 19:45:05;;;;;;;0.47;0.40;;;17.00;68.30;;;;;;20824357;28;20531;-75
2021/10/06 19:55:06;;;;;;;0.47;0.20;;;16.90;68.40;;;;;;20777370;28;20030;-75
2021/10/06 20:05:07;;;;;;;0.68;0.30;;;16.90;68.40;;;;;;20743292;28;20036;-75
2021/10/06 20:15:08;;;;;;;1.50;0.43;;;16.90;68.40;;;;;;20789305;28;20021;-74
2021/10/06 20:25:09;;;;;;;1.60;0.50;;;16.90;68.40;;;;;;20810034;28;20073;-77
2021/10/06 20:45:10;;;;;;;0.93;0.37;;;16.90;68.30;;;;;;20836835;28;20037;-75
2021/10/06 20:55:17;;;;;;;1.00;0.50;;;16.90;68.20;;;;;;20819012;28;20303;-76
2021/10/06 21:05:18;;;;;;;1.08;0.60;;;16.90;68.20;;;;;;20819110;28;20487;-76
2021/10/06 21:15:18;;;;;;;0.90;0.60;;;16.90;68.10;;;;;;20817476;28;20021;-77
2021/10/06 21:25:19;;;;;;;0.43;0.32;;;16.90;68.10;;;;;;20817916;28;20041;-76
2021/10/06 21:35:19;;;;;;;0.65;0.40;;;16.90;68.00;;;;;;20815164;28;20057;-76
2021/10/06 21:45:20;;;;;;;1.38;0.52;;;16.90;67.90;;;;;;20814915;28;20088;-75
2021/10/06 21:55:22;;;;;;;1.33;0.50;;;16.90;67.90;;;;;;20814863;28;20029;-75
2021/10/06 22:05:23;;;;;;;1.00;0.50;;;16.90;67.80;;;;;;20813621;28;20046;-76
2021/10/06 22:15:24;;;;;;;0.82;0.60;;;16.90;67.70;;;;;;20796992;28;20062;-75
2021/10/06 22:25:25;;;;;;;2.72;0.60;;;16.80;67.60;;;;;;20830527;28;20417;-75
2021/10/06 22:35:26;;;;;;;3.40;0.50;;;16.90;68.30;;;;;;20797085;28;20098;-77
2021/10/06 22:45:27;;;;;;;0.77;0.47;;;16.90;67.60;;;;;;20811860;28;20133;-76
2021/10/06 22:55:27;;;;;;;1.95;0.50;;;16.90;67.50;;;;;;20783530;28;20435;-74
2021/10/06 23:05:28;;;;;;;2.80;0.50;;;16.90;67.50;;;;;;20728700;28;20053;-75
2021/10/06 23:15:28;;;;;;;0.95;0.50;;;16.80;67.30;;;;;;20728833;28;20147;-75
2021/10/06 23:25:32;;;;;;;0.45;0.32;;;16.80;67.30;;;;;;20743316;28;20523;-75
2021/10/06 23:35:33;;;;;;;1.30;0.45;;;16.80;67.20;;;;;;20748963;28;20124;-74
2021/10/06 23:45:33;;;;;;;0.63;0.47;;;16.80;67.20;;;;;;20742970;28;20456;-74
2021/10/06 23:55:34;;;;;;;2.35;0.55;;;16.80;67.10;;;;;;20760067;28;20116;-77
